Nearby METAR Reports

 

KPMP - Pompano Beach, Florida, USA
Distance from station: NNW 3mi, 5km
Updated: 12/04/2021 2:53am
Few Clouds
Few Clouds
 Wind from NNW
Wind: NNW 3 mph , 6 km/h
Temperature: 64°F , 18°C
Dew Point: 61°F , 16°C
Humidity: 88%
Barometer: 30.09 inHg , 1019 hPa
Clouds: Few Clouds
Visibility: 10 miles , 16 km
Cloud details: Few Clouds 3800 ft
2021/12/04 07:53 KPMP 040753Z AUTO 34003KT 10SM FEW038 18/16 A3009 RMK AO2 SLP190 T01830156
KFXE - Ft Lauderd/Exec, Florida, USA
Distance from station: W 6mi, 9km
Updated: 12/04/2021 2:53am
Few Clouds
Few Clouds
 Wind from NNW
Wind: NNW 3 mph , 6 km/h
Temperature: 64°F , 18°C
Dew Point: 61°F , 16°C
Humidity: 88%
Barometer: 30.09 inHg , 1019 hPa
Clouds: Few Clouds
Visibility: 10 miles , 16 km
Cloud details: Few Clouds 3800 ft
2021/12/04 07:53 KFXE 040753Z AUTO 34003KT 10SM FEW038 18/16 A3009 RMK AO2 SLP191 T01830161 TSNO
 
KFLL - Ft Lauderd/Holly, Florida, USA
Distance from station: SSW 11mi, 17km
Updated: 12/04/2021 2:53am
Mostly cloudy
Mostly cloudy
 Wind from calm
Wind: Calm
Temperature: 66°F , 19°C
Dew Point: 63°F , 17°C
Humidity: 88%
Barometer: 30.08 inHg , 1018.6 hPa
Clouds: Mostly cloudy
Visibility: 10 miles , 16 km
Cloud details: Mostly cloudy 4000 ft
2021/12/04 07:53 KFLL 040753Z 00000KT 10SM BKN040 19/17 A3008 RMK AO2 SLP185 T01890172
KBCT - Boca Raton, Florida, USA
Distance from station: N 12mi, 19km
Updated: 12/03/2021 10:53pm
NOT Current
Partly cloudy
Partly cloudy
 Wind from NNE
Wind: NNE 5 mph , 7 km/h
Temperature: 64°F , 18°C
Dew Point: 59°F , 15°C
Humidity: 83%
Barometer: 30.13 inHg , 1020.3 hPa
Clouds: Partly cloudy
Visibility: 10 miles , 16 km
Cloud details: Partly cloudy 3800 ft
2021/12/04 03:53 KBCT 040353Z 02004KT 10SM SCT038 18/15 A3013
 
KHWO - Hollywood, Florida, USA
Distance from station: SSW 17mi, 27km
Updated: 12/04/2021 2:53am
Mostly cloudy
Mostly cloudy
 Wind from calm
Wind: Calm
Temperature: 64°F , 18°C
Dew Point: 61°F , 16°C
Humidity: 88%
Barometer: 30.10 inHg , 1019.3 hPa
Clouds: Mostly cloudy
Visibility: 10 miles , 16 km
Cloud details: Mostly cloudy 3600 ft
2021/12/04 07:53 KHWO 040753Z 00000KT 10SM BKN036 18/16 A3010 RMK AO2 SLP192 T01830156 $
KOPF - Miami/Opa Locka, Florida, USA
Distance from station: SSW 24mi, 38km
Updated: 12/04/2021 2:53am
Clear
Clear
 Wind from calm
Wind: Calm
Temperature: 66°F , 19°C
Dew Point: 59°F , 15°C
Humidity: 78%
Barometer: 30.09 inHg , 1019 hPa
Clouds: Clear
Visibility: 10 miles , 16 km
2021/12/04 07:53 KOPF 040753Z AUTO 00000KT 10SM CLR 19/15 A3009 RMK AO2 SLP191 T01890150
 
KMIA - Miami, Florida, USA
Distance from station: SSW 31mi, 50km
Updated: 12/04/2021 2:53am
Few Clouds
Few Clouds
 Wind from calm
Wind: Calm
Temperature: 64°F , 18°C
Dew Point: 61°F , 16°C
Humidity: 88%
Barometer: 30.09 inHg , 1019 hPa
Clouds: Few Clouds
Visibility: 10 miles , 16 km
Cloud details: Few Clouds 3800 ft
2021/12/04 07:53 KMIA 040753Z 00000KT 10SM FEW038 18/16 A3009 RMK AO2 SLP188 T01830161 $
KPBI - West Palm Beach, Florida, USA
Distance from station: N 33mi, 52km
Updated: 12/04/2021 2:53am
Partly cloudy
Partly cloudy
 Wind from calm
Wind: Calm
Temperature: 63°F , 17°C
Dew Point: 61°F , 16°C
Humidity: 94%
Barometer: 30.10 inHg , 1019.3 hPa
Clouds: Partly cloudy
Visibility: 10 miles , 16 km
Cloud details: Few Clouds 3700 ft
Partly cloudy 25000 ft
2021/12/04 07:53 KPBI 040753Z 00000KT 10SM FEW037 SCT250 17/16 A3010 RMK AO2 SLP193 T01670161
 
KTMB - Miami/Tamiami, Florida, USA
Distance from station: SSW 44mi, 71km
Updated: 12/04/2021 2:53am
Clear
Clear
 Wind from calm
Wind: Calm
Temperature: 63°F , 17°C
Dew Point: 61°F , 16°C
Humidity: 94%
Barometer: 30.09 inHg , 1019 hPa
Clouds: Clear
Visibility: 10 miles , 16 km
2021/12/04 07:53 KTMB 040753Z AUTO 00000KT 10SM CLR 17/16 A3009 RMK AO2 SLP187 T01720156